Time;durP1;ratioP1;P1;durP2;ratioP2;P2;SDS_P1;SDS_P2;PMS_P1;PMS_P2;Temp;Humidity;BMP_temperature;BMP_pressure;BME280_temperature;BME280_humidity;BME280_pressure;Samples;Min_cycle;Max_cycle;Signal;HPM_P1;HPM_P2
2022/11/29 00:01:28;;;;;;;1.73;1.63;;;7.10;99.90;6.30;95611.00;;;;5033974;28;20677;-55
2022/11/29 00:03:55;;;;;;;3.50;1.80;;;7.20;99.90;6.30;95607.00;;;;5033915;28;20650;-55
2022/11/29 00:06:26;;;;;;;2.03;1.93;;;7.20;99.90;6.30;95607.00;;;;5033762;28;20235;-55
2022/11/29 00:08:53;;;;;;;1.87;1.77;;;7.20;99.90;6.30;95614.00;;;;5033914;28;20342;-56
2022/11/29 00:14:13;;;;;;;1.43;1.33;;;7.20;99.90;6.30;95610.00;;;;5033973;28;20236;-55
2022/11/29 00:16:40;;;;;;;1.30;1.30;;;7.10;99.90;6.30;95608.00;;;;5016345;28;20204;-54
2022/11/29 00:19:08;;;;;;;1.90;1.40;;;7.20;99.90;6.20;95598.00;;;;5033669;28;20679;-55
2022/11/29 00:21:34;;;;;;;2.87;2.63;;;7.10;99.90;6.30;95598.00;;;;5033819;28;20258;-55
2022/11/29 00:24:01;;;;;;;2.20;2.00;;;7.10;99.90;6.30;95601.00;;;;5033694;28;20193;-57
2022/11/29 00:26:28;;;;;;;1.87;1.77;;;7.10;99.90;6.30;95601.00;;;;5016315;28;20626;-56
2022/11/29 00:28:56;;;;;;;2.90;2.70;;;7.10;99.90;6.30;95598.00;;;;5033770;28;20210;-56
2022/11/29 00:31:25;;;;;;;1.93;1.83;;;7.20;99.90;6.30;95602.00;;;;5032512;28;20240;-56
2022/11/29 00:33:52;;;;;;;1.70;1.60;;;7.20;99.90;6.30;95599.00;;;;5033551;28;20292;-56
2022/11/29 00:36:19;;;;;;;1.20;1.20;;;7.20;99.90;6.30;95601.00;;;;5033494;28;20212;-56
2022/11/29 00:38:46;;;;;;;0.93;0.93;;;7.10;99.90;6.20;95604.00;;;;5033547;28;20204;-57
2022/11/29 00:41:13;;;;;;;1.63;1.53;;;7.20;99.90;6.30;95605.00;;;;5033509;28;20209;-56
2022/11/29 00:43:40;;;;;;;1.77;1.67;;;7.20;99.90;6.20;95603.00;;;;5033458;28;20294;-56
2022/11/29 00:46:08;;;;;;;1.13;1.10;;;7.10;99.90;6.20;95600.00;;;;5033393;28;20212;-56
2022/11/29 00:48:34;;;;;;;1.40;1.30;;;7.10;99.90;6.20;95607.00;;;;5033407;28;20291;-61
2022/11/29 00:51:01;;;;;;;1.43;1.33;;;7.10;99.90;6.30;95606.00;;;;5033268;28;20212;-56
2022/11/29 00:53:28;;;;;;;1.87;1.77;;;7.10;99.90;6.30;95604.00;;;;5036852;28;20200;-55
2022/11/29 00:55:56;;;;;;;1.03;1.03;;;7.10;99.90;6.30;95601.00;;;;5036741;28;20220;-58
2022/11/29 00:58:23;;;;;;;0.97;0.93;;;7.20;99.90;6.30;95597.00;;;;5036751;28;20639;-57
2022/11/29 01:00:53;;;;;;;1.27;1.17;;;7.20;99.90;6.30;95602.00;;;;5036855;28;20224;-57
2022/11/29 01:03:20;;;;;;;1.90;1.80;;;7.20;99.90;6.30;95605.00;;;;5036795;28;20199;-56
2022/11/29 01:05:47;;;;;;;1.07;1.07;;;7.20;99.90;6.30;95611.00;;;;5036646;28;20219;-56
2022/11/29 01:08:17;;;;;;;1.57;1.47;;;7.20;99.90;6.20;95612.00;;;;5036545;28;20256;-56
2022/11/29 01:10:43;;;;;;;2.83;1.80;;;7.20;99.90;6.30;95608.00;;;;5036583;28;20216;-58
2022/11/29 01:13:10;;;;;;;1.80;1.70;;;7.20;99.90;6.30;95613.00;;;;5036607;28;20253;-56
2022/11/29 01:15:39;;;;;;;1.13;1.13;;;7.20;99.90;6.30;95608.00;;;;5036377;28;20219;-55
2022/11/29 01:18:06;;;;;;;1.30;1.30;;;7.20;99.90;6.20;95613.00;;;;5036566;28;20210;-56
2022/11/29 01:20:33;;;;;;;1.60;1.50;;;7.10;99.90;6.20;95607.00;;;;5036514;28;20216;-56
2022/11/29 01:22:59;;;;;;;2.67;1.67;;;7.10;99.90;6.20;95612.00;;;;5018905;28;20196;-56
2022/11/29 01:25:25;;;;;;;1.07;1.07;;;7.10;99.90;6.20;95610.00;;;;5036588;28;20200;-62
2022/11/29 01:27:53;;;;;;;1.47;1.37;;;7.10;99.90;6.20;95621.00;;;;5035883;28;20219;-56
2022/11/29 01:30:20;;;;;;;1.63;1.53;;;7.10;99.90;6.20;95608.00;;;;5036176;28;20204;-55
2022/11/29 01:32:46;;;;;;;1.80;1.70;;;7.10;99.90;6.20;95614.00;;;;5036165;28;20225;-55
2022/11/29 01:35:13;;;;;;;3.60;1.97;;;7.10;99.90;6.20;95614.00;;;;5036249;28;20283;-56
2022/11/29 01:37:40;;;;;;;0.93;0.93;;;7.10;99.90;6.20;95623.00;;;;5036038;28;20227;-56
2022/11/29 01:40:07;;;;;;;1.10;1.10;;;7.10;99.90;6.20;95615.00;;;;5036144;28;20216;-56
2022/11/29 01:42:34;;;;;;;0.77;0.77;;;7.10;99.90;6.20;95616.00;;;;5035990;28;20200;-54
2022/11/29 01:45:20;;;;;;;0.90;0.90;;;7.10;99.90;6.20;95615.00;;;;5036011;28;20814;-58
2022/11/29 01:47:50;;;;;;;0.90;0.90;;;7.10;99.90;6.20;95612.00;;;;5035983;28;20639;-56
2022/11/29 01:50:17;;;;;;;1.10;1.10;;;7.10;99.90;6.20;95611.00;;;;5018521;28;20221;-58
2022/11/29 01:52:45;;;;;;;1.13;1.13;;;7.10;99.90;6.20;95601.00;;;;5036021;28;20196;-55
2022/11/29 01:55:13;;;;;;;1.20;0.97;;;7.10;99.90;6.30;95607.00;;;;5035969;28;20227;-55
2022/11/29 01:57:42;;;;;;;1.13;1.13;;;7.10;99.90;6.20;95610.00;;;;5035915;28;20224;-56
2022/11/29 02:00:13;;;;;;;1.43;1.43;;;7.10;99.90;6.30;95602.00;;;;5035782;28;20239;-56
2022/11/29 02:02:44;;;;;;;1.00;1.00;;;7.10;99.90;6.10;95615.00;;;;5035606;28;20212;-62
2022/11/29 02:05:13;;;;;;;0.73;0.73;;;7.10;99.90;6.20;95603.00;;;;5018669;28;20250;-59
2022/11/29 02:07:44;;;;;;;0.90;0.90;;;7.20;99.90;6.20;95603.00;;;;5035863;28;20636;-58
2022/11/29 02:10:12;;;;;;;1.20;1.20;;;7.10;99.90;6.20;95609.00;;;;5035827;28;20620;-62
2022/11/29 02:12:53;;;;;;;1.43;1.33;;;7.10;99.90;6.20;95606.00;;;;5035518;28;20705;-59
2022/11/29 02:15:32;;;;;;;1.10;1.10;;;7.10;99.90;6.20;95606.00;;;;5035682;28;20214;-56
2022/11/29 02:18:06;;;;;;;1.57;1.47;;;7.10;99.90;6.20;95606.00;;;;5035627;28;20352;-58
2022/11/29 02:21:16;;;;;;;0.90;0.90;;;7.10;99.90;6.20;95606.00;;;;5018228;28;20207;-55
2022/11/29 02:24:33;;;;;;;1.20;1.10;;;7.00;99.90;6.10;95604.00;;;;5035470;28;20224;-56
2022/11/29 02:27:22;;;;;;;0.77;0.77;;;7.10;99.90;6.10;95606.00;;;;5011707;28;20307;-57
2022/11/29 02:30:22;;;;;;;1.07;1.07;;;7.00;99.90;6.10;95609.00;;;;5017755;28;20259;-56
2022/11/29 02:33:32;;;;;;;1.90;0.87;;;7.00;99.90;6.10;95599.00;;;;4976072;28;20220;-56
2022/11/29 02:36:41;;;;;;;0.80;0.80;;;7.00;99.90;6.10;95607.00;;;;5014608;28;20234;-58
2022/11/29 02:39:48;;;;;;;1.23;1.03;;;7.00;99.90;6.00;95600.00;;;;5035254;28;20218;-56
2022/11/29 02:43:01;;;;;;;0.70;0.70;;;7.00;99.90;6.10;95605.00;;;;5006790;28;20377;-56
2022/11/29 02:45:57;;;;;;;1.00;1.00;;;7.00;99.90;6.10;95606.00;;;;5035211;28;20240;-56
2022/11/29 02:48:51;;;;;;;1.63;1.20;;;7.00;99.90;6.10;95607.00;;;;5035454;28;20196;-57
2022/11/29 02:51:25;;;;;;;0.80;0.80;;;7.00;99.90;6.10;95604.00;;;;5034854;28;20227;-56
2022/11/29 02:54:05;;;;;;;0.63;0.63;;;7.00;99.90;6.10;95607.00;;;;5035096;28;20239;-57
2022/11/29 02:56:42;;;;;;;1.10;1.10;;;7.00;99.90;6.10;95612.00;;;;5034908;28;20706;-56
2022/11/29 02:59:19;;;;;;;0.90;0.90;;;7.00;99.90;6.00;95607.00;;;;5035061;28;20197;-56
2022/11/29 03:01:57;;;;;;;0.97;0.97;;;7.00;99.90;6.10;95606.00;;;;5034819;28;20212;-56
2022/11/29 03:04:33;;;;;;;0.87;0.87;;;7.00;99.90;6.00;95605.00;;;;5034892;28;20200;-56
2022/11/29 03:07:12;;;;;;;0.77;0.77;;;6.90;99.90;6.00;95607.00;;;;5034725;28;20203;-54
2022/11/29 03:09:44;;;;;;;1.03;1.03;;;6.90;99.90;6.00;95608.00;;;;5034857;28;20196;-55
2022/11/29 03:12:26;;;;;;;0.60;0.60;;;6.90;99.90;5.90;95609.00;;;;5034775;28;20227;-55
2022/11/29 03:15:10;;;;;;;0.60;0.60;;;6.90;99.90;5.90;95617.00;;;;5034050;28;20631;-55
2022/11/29 03:17:55;;;;;;;1.43;1.33;;;6.80;99.90;6.00;95616.00;;;;5034686;28;20223;-56
2022/11/29 03:20:36;;;;;;;0.50;0.50;;;6.90;99.90;6.00;95623.00;;;;5017161;28;20328;-54
2022/11/29 03:23:21;;;;;;;1.20;1.20;;;6.90;99.90;6.00;95616.00;;;;5034652;28;20201;-55
2022/11/29 03:25:56;;;;;;;0.80;0.80;;;6.80;99.90;6.00;95613.00;;;;5034473;28;20220;-56
2022/11/29 03:28:30;;;;;;;0.93;0.93;;;6.80;99.90;5.90;95625.00;;;;5034430;28;20218;-56
2022/11/29 03:31:05;;;;;;;0.80;0.80;;;6.90;99.90;5.90;95622.00;;;;5016791;28;20533;-55
2022/11/29 03:33:47;;;;;;;1.27;1.17;;;6.90;99.90;5.90;95629.00;;;;5034427;28;20201;-58
2022/11/29 03:36:28;;;;;;;2.90;1.90;;;6.80;99.90;5.90;95624.00;;;;5034303;28;20235;-56
2022/11/29 03:39:04;;;;;;;1.83;1.73;;;6.80;99.90;5.90;95623.00;;;;5016908;28;20559;-57
2022/11/29 03:41:42;;;;;;;1.30;1.07;;;6.80;99.90;5.90;95628.00;;;;5034245;28;20221;-56
2022/11/29 03:44:15;;;;;;;2.00;1.00;;;6.80;99.90;5.90;95626.00;;;;5033297;28;20192;-57
2022/11/29 03:46:53;;;;;;;1.33;1.27;;;6.80;99.90;5.90;95632.00;;;;5034136;28;20207;-57
2022/11/29 03:49:27;;;;;;;0.80;0.80;;;6.90;99.90;5.90;95625.00;;;;5034151;28;20222;-55
2022/11/29 03:52:12;;;;;;;0.60;0.60;;;6.80;99.90;5.90;95632.00;;;;5033969;28;20226;-55
2022/11/29 03:54:56;;;;;;;0.53;0.53;;;6.80;99.90;5.90;95633.00;;;;5034222;28;20205;-55
2022/11/29 03:57:33;;;;;;;0.70;0.70;;;6.80;99.90;5.90;95645.00;;;;5034084;28;20215;-53
2022/11/29 04:00:05;;;;;;;0.60;0.60;;;6.80;99.90;5.90;95644.00;;;;5034066;28;20184;-57
2022/11/29 04:03:06;;;;;;;0.80;0.80;;;6.70;99.90;6.00;95652.00;;;;5034281;28;20254;-55
2022/11/29 04:06:10;;;;;;;1.13;1.13;;;6.90;99.90;6.00;95641.00;;;;5016679;28;20583;-59
2022/11/29 04:09:06;;;;;;;1.13;1.07;;;6.90;99.90;6.00;95637.00;;;;5016718;28;20211;-57
2022/11/29 04:12:04;;;;;;;0.80;0.80;;;6.90;99.90;6.00;95644.00;;;;5034057;28;20212;-60
2022/11/29 04:14:55;;;;;;;3.40;1.93;;;6.90;99.90;6.00;95645.00;;;;5033899;28;20736;-56
2022/11/29 04:18:21;;;;;;;1.03;1.03;;;6.90;99.90;6.00;95652.00;;;;5033751;28;20658;-55
2022/11/29 04:21:29;;;;;;;1.13;1.13;;;6.90;99.90;6.00;95651.00;;;;4987417;28;20285;-55
2022/11/29 04:24:29;;;;;;;1.40;1.37;;;6.90;99.90;6.00;95657.00;;;;5033671;28;20201;-57
2022/11/29 04:27:32;;;;;;;1.77;1.67;;;6.90;99.90;6.00;95668.00;;;;5032313;28;20220;-55
2022/11/29 04:30:12;;;;;;;1.00;1.00;;;6.90;99.90;6.00;95665.00;;;;5033483;28;20199;-56
2022/11/29 04:33:46;;;;;;;1.60;1.50;;;6.90;99.90;6.00;95664.00;;;;5033413;28;20243;-55
2022/11/29 04:36:54;;;;;;;1.27;0.97;;;6.90;99.90;6.00;95664.00;;;;5033479;28;20201;-55
2022/11/29 04:40:09;;;;;;;1.37;1.30;;;6.90;99.90;6.00;95675.00;;;;5033766;28;20583;-57
2022/11/29 04:43:03;;;;;;;1.17;1.17;;;6.90;99.90;6.10;95662.00;;;;4953672;29;20250;-55
2022/11/29 04:46:03;;;;;;;1.37;1.30;;;7.00;99.90;6.00;95664.00;;;;5033234;28;20643;-55
2022/11/29 04:48:58;;;;;;;0.80;0.80;;;6.90;99.90;6.00;95664.00;;;;5033293;28;20199;-55
2022/11/29 04:51:54;;;;;;;0.67;0.67;;;6.90;99.90;6.00;95667.00;;;;5033203;28;20220;-55
2022/11/29 04:54:32;;;;;;;0.70;0.70;;;6.90;99.90;6.00;95672.00;;;;5033182;28;20235;-55
2022/11/29 04:57:09;;;;;;;0.70;0.70;;;6.90;99.90;6.00;95662.00;;;;5033170;28;20200;-55
2022/11/29 04:59:45;;;;;;;1.00;1.00;;;6.90;99.90;6.00;95677.00;;;;5015800;28;20243;-54
2022/11/29 05:02:31;;;;;;;0.90;0.90;;;6.90;99.90;6.00;95689.00;;;;5033304;28;20214;-55
2022/11/29 05:05:13;;;;;;;1.30;1.23;;;6.90;99.90;6.00;95665.00;;;;5015588;28;20237;-55
2022/11/29 05:07:52;;;;;;;0.73;0.73;;;6.90;99.90;5.90;95681.00;;;;5033063;28;20196;-55
2022/11/29 05:10:30;;;;;;;0.80;0.80;;;6.90;99.90;5.90;95687.00;;;;5032915;28;20288;-55
2022/11/29 05:13:09;;;;;;;0.80;0.80;;;6.80;99.90;5.80;95681.00;;;;5032996;28;20204;-57
2022/11/29 05:16:11;;;;;;;0.80;0.80;;;6.80;99.90;5.80;95686.00;;;;5032839;28;20247;-57
2022/11/29 05:19:13;;;;;;;2.37;1.60;;;6.70;99.90;5.80;95680.00;;;;5030582;28;20208;-54
2022/11/29 05:21:56;;;;;;;0.70;0.70;;;6.70;99.90;5.80;95679.00;;;;5015589;28;20297;-55
2022/11/29 05:24:41;;;;;;;0.80;0.80;;;6.80;99.90;5.80;95695.00;;;;5033000;28;20207;-55
2022/11/29 05:27:22;;;;;;;0.80;0.80;;;6.70;99.90;5.90;95696.00;;;;5033050;28;20516;-55
2022/11/29 05:29:58;;;;;;;2.70;1.90;;;6.80;99.90;5.90;95693.00;;;;5015520;28;20590;-55
2022/11/29 05:32:37;;;;;;;1.77;1.40;;;6.80;99.90;5.90;95698.00;;;;5032644;28;20216;-56
2022/11/29 05:35:39;;;;;;;1.23;1.23;;;6.80;99.90;5.90;95700.00;;;;5032888;28;20258;-55
2022/11/29 05:38:27;;;;;;;0.90;0.90;;;6.80;99.90;6.00;95700.00;;;;5008457;28;20290;-55
2022/11/29 05:41:15;;;;;;;1.53;1.47;;;6.90;99.90;5.90;95697.00;;;;5018569;28;20267;-56
2022/11/29 05:43:58;;;;;;;1.33;1.10;;;6.80;99.90;5.80;95704.00;;;;5036011;28;20196;-57
2022/11/29 05:46:33;;;;;;;2.37;2.27;;;6.70;99.90;5.90;95709.00;;;;5035912;28;20292;-55
2022/11/29 05:49:20;;;;;;;1.03;1.03;;;6.70;99.90;5.80;95708.00;;;;5035923;28;20630;-55
2022/11/29 05:52:01;;;;;;;1.13;1.13;;;6.80;99.90;5.80;95707.00;;;;5035747;28;20223;-57
2022/11/29 05:54:35;;;;;;;1.47;1.37;;;6.70;99.90;5.90;95701.00;;;;5035928;28;20193;-55
2022/11/29 05:57:13;;;;;;;1.17;0.80;;;6.70;99.90;5.90;95699.00;;;;5035825;28;20195;-55
2022/11/29 05:59:45;;;;;;;1.10;1.07;;;6.70;99.90;5.90;95715.00;;;;5035881;28;20231;-57
2022/11/29 06:02:32;;;;;;;0.70;0.70;;;6.80;99.90;5.90;95716.00;;;;5035907;28;20208;-56
2022/11/29 06:05:12;;;;;;;1.13;1.13;;;6.80;99.90;5.90;95720.00;;;;5035726;28;20208;-56
2022/11/29 06:07:51;;;;;;;0.63;0.63;;;6.80;99.90;5.90;95727.00;;;;5018223;28;20207;-56
2022/11/29 06:10:21;;;;;;;0.90;0.90;;;6.80;99.90;5.90;95720.00;;;;5035762;28;20203;-56
2022/11/29 06:13:07;;;;;;;1.20;1.10;;;6.80;99.90;5.90;95723.00;;;;5035548;28;20306;-57
2022/11/29 06:16:10;;;;;;;12.73;1.43;;;6.80;99.90;5.80;95726.00;;;;5018215;28;20220;-56
2022/11/29 06:19:23;;;;;;;1.10;1.10;;;6.70;99.90;5.90;95720.00;;;;5035479;28;20207;-56
2022/11/29 06:22:07;;;;;;;0.70;0.70;;;6.80;99.90;5.90;95724.00;;;;5035523;28;20239;-57
2022/11/29 06:24:55;;;;;;;0.90;0.90;;;6.80;99.90;5.90;95730.00;;;;5035574;28;20214;-58
2022/11/29 06:27:49;;;;;;;1.07;1.07;;;6.80;99.90;5.90;95730.00;;;;5035306;28;20307;-56
2022/11/29 06:30:21;;;;;;;1.27;1.27;;;6.80;99.90;5.90;95735.00;;;;5035439;28;20612;-58
2022/11/29 06:33:00;;;;;;;0.90;0.87;;;6.80;99.90;5.80;95735.00;;;;5035106;28;20239;-58
2022/11/29 06:35:44;;;;;;;1.63;1.53;;;6.80;99.90;5.90;95741.00;;;;5035305;28;20724;-58
2022/11/29 06:38:20;;;;;;;1.17;1.17;;;6.80;99.90;5.80;95738.00;;;;5017877;28;20288;-59
2022/11/29 06:40:48;;;;;;;0.83;0.83;;;6.80;99.90;5.80;95727.00;;;;5035402;28;20210;-63
2022/11/29 06:43:16;;;;;;;0.90;0.90;;;6.70;99.90;5.80;95737.00;;;;5035136;28;20208;-54
2022/11/29 06:45:50;;;;;;;0.60;0.60;;;6.70;99.90;5.90;95743.00;;;;5035296;28;20210;-57
2022/11/29 06:48:24;;;;;;;1.00;1.00;;;6.80;99.90;5.80;95744.00;;;;5034982;28;20215;-56
2022/11/29 06:51:02;;;;;;;1.10;1.10;;;6.80;99.90;5.90;95751.00;;;;5034164;28;20203;-55
2022/11/29 06:53:42;;;;;;;0.77;0.77;;;6.70;99.90;5.90;95750.00;;;;5035220;28;20207;-56
2022/11/29 06:56:24;;;;;;;1.10;1.10;;;6.80;99.90;5.90;95746.00;;;;5035005;28;20208;-54
2022/11/29 06:59:06;;;;;;;1.70;1.50;;;6.80;99.90;5.90;95753.00;;;;5034896;28;20211;-54
2022/11/29 07:01:42;;;;;;;2.73;1.23;;;6.80;99.90;5.90;95753.00;;;;5034824;28;20192;-55
2022/11/29 07:04:48;;;;;;;1.23;1.17;;;6.80;99.90;5.90;95752.00;;;;5034772;28;20204;-55
2022/11/29 07:07:20;;;;;;;0.77;0.77;;;6.70;99.90;5.90;95760.00;;;;5023828;28;20309;-55
2022/11/29 07:09:50;;;;;;;0.90;0.90;;;6.70;99.90;5.90;95749.00;;;;5034710;28;20204;-57
2022/11/29 07:12:20;;;;;;;0.80;0.80;;;6.70;99.90;5.80;95751.00;;;;5034627;28;20255;-55
2022/11/29 07:14:47;;;;;;;0.73;0.73;;;6.70;99.90;5.80;95762.00;;;;5034896;28;20216;-58
2022/11/29 07:17:24;;;;;;;1.40;1.30;;;6.70;99.90;5.80;95760.00;;;;5017403;28;20240;-55
2022/11/29 07:20:03;;;;;;;1.40;1.33;;;6.70;99.90;5.80;95771.00;;;;5034704;28;20242;-57
2022/11/29 07:22:49;;;;;;;0.83;0.83;;;6.70;99.90;5.90;95769.00;;;;5034483;28;20310;-55
2022/11/29 07:25:30;;;;;;;1.40;1.30;;;6.70;99.90;5.90;95773.00;;;;5034522;28;20260;-55
2022/11/29 07:28:19;;;;;;;1.10;1.10;;;6.70;99.90;5.80;95776.00;;;;5034483;28;20524;-57
2022/11/29 07:30:56;;;;;;;17.07;2.13;;;6.80;99.90;5.90;95783.00;;;;5034363;28;20208;-55
2022/11/29 07:33:34;;;;;;;2.27;1.97;;;6.80;99.90;5.90;95771.00;;;;5034401;28;20220;-55
2022/11/29 07:36:13;;;;;;;2.47;2.13;;;6.80;99.90;5.80;95781.00;;;;5034493;28;20179;-55
2022/11/29 07:38:57;;;;;;;2.03;1.93;;;6.80;99.90;5.90;95777.00;;;;5034256;28;20243;-57
2022/11/29 07:41:41;;;;;;;1.57;1.47;;;6.70;99.90;6.20;95785.00;;;;5034359;28;20207;-55
2022/11/29 07:44:17;;;;;;;2.10;1.77;;;;;6.50;95785.00;;;;5033977;28;20231;-59
2022/11/29 07:46:44;;;;;;;1.20;1.20;;;7.20;99.90;6.50;95787.00;;;;5016573;28;20196;-55
2022/11/29 07:49:10;;;;;;;1.63;1.50;;;7.30;99.90;6.60;95794.00;;;;5016575;28;20644;-57
2022/11/29 07:51:38;;;;;;;3.27;2.27;;;7.40;99.90;6.60;95777.00;;;;5016623;28;20232;-53
2022/11/29 07:54:05;;;;;;;1.73;1.63;;;7.40;99.90;6.60;95790.00;;;;5033114;28;20196;-54
2022/11/29 07:56:31;;;;;;;1.50;1.40;;;7.40;99.90;6.60;95787.00;;;;5033049;28;20225;-62
2022/11/29 07:58:57;;;;;;;1.63;1.57;;;7.50;99.90;6.70;95798.00;;;;5034006;28;20193;-55
2022/11/29 08:01:26;;;;;;;0.97;0.97;;;7.50;99.90;6.80;95794.00;;;;5033700;28;20313;-55
2022/11/29 08:03:52;;;;;;;1.10;1.10;;;7.60;99.90;6.90;95794.00;;;;5033950;28;20524;-53
2022/11/29 08:06:24;;;;;;;1.30;1.30;;;7.70;99.90;6.90;95798.00;;;;5033891;28;20296;-55
2022/11/29 08:08:51;;;;;;;1.13;1.10;;;7.70;99.90;6.90;95797.00;;;;5033950;28;20200;-55
2022/11/29 08:11:20;;;;;;;0.90;0.90;;;7.80;99.90;6.70;95795.00;;;;5033767;28;20232;-54
2022/11/29 08:13:47;;;;;;;1.10;1.10;;;7.70;99.90;6.70;95790.00;;;;5033707;28;20236;-55
2022/11/29 08:16:17;;;;;;;0.83;0.83;;;7.60;99.90;6.60;95797.00;;;;5033840;28;20640;-55
2022/11/29 08:18:43;;;;;;;1.07;1.07;;;7.50;99.90;6.50;95801.00;;;;5033888;28;20242;-55
2022/11/29 08:21:16;;;;;;;0.90;0.90;;;7.50;99.90;6.40;95809.00;;;;5033813;28;20193;-55
2022/11/29 08:23:46;;;;;;;1.00;1.00;;;7.40;99.90;6.30;95802.00;;;;5033621;28;20575;-55
2022/11/29 08:26:15;;;;;;;0.97;0.97;;;7.30;99.90;6.30;95805.00;;;;5033712;28;20226;-55
2022/11/29 08:28:41;;;;;;;0.97;0.97;;;7.20;99.90;6.20;95799.00;;;;5033657;28;20254;-58
2022/11/29 08:31:12;;;;;;;1.13;1.13;;;7.20;99.90;6.20;95812.00;;;;5033411;28;20225;-55
2022/11/29 08:33:42;;;;;;;2.00;1.30;;;7.10;99.90;6.20;95810.00;;;;5033527;28;20212;-57
2022/11/29 08:36:11;;;;;;;2.33;1.63;;;7.20;99.90;6.20;95814.00;;;;5033364;28;20220;-55
2022/11/29 08:38:38;;;;;;;3.23;1.10;;;7.10;99.90;6.20;95812.00;;;;5033532;28;20209;-55
2022/11/29 08:41:07;;;;;;;1.20;1.13;;;7.10;99.90;6.20;95817.00;;;;5033482;28;20204;-55
2022/11/29 08:43:35;;;;;;;0.80;0.80;;;7.10;99.90;6.30;95794.00;;;;5033373;28;20193;-54
2022/11/29 08:46:05;;;;;;;0.97;0.97;;;7.10;99.90;6.30;95806.00;;;;5033364;28;20283;-57
2022/11/29 08:48:35;;;;;;;1.10;1.07;;;7.20;99.90;6.30;95820.00;;;;5033222;28;20246;-54
2022/11/29 08:51:03;;;;;;;0.83;0.83;;;7.20;99.90;6.30;95816.00;;;;5033223;28;20201;-55
2022/11/29 08:53:42;;;;;;;0.73;0.73;;;7.20;99.90;6.30;95827.00;;;;5033223;28;20220;-55
2022/11/29 08:56:10;;;;;;;0.87;0.83;;;7.20;99.90;6.30;95824.00;;;;5033245;28;20623;-56
2022/11/29 08:58:39;;;;;;;0.80;0.80;;;7.30;99.90;6.30;95828.00;;;;5033163;28;20197;-54
2022/11/29 09:01:12;;;;;;;1.10;1.10;;;7.20;99.90;6.30;95827.00;;;;5033292;28;20216;-55
2022/11/29 09:06:23;;;;;;;0.70;0.70;;;7.20;99.90;6.30;95841.00;;;;5033424;28;20221;-56
2022/11/29 09:08:49;;;;;;;1.03;1.03;;;7.20;99.90;6.30;95835.00;;;;5033162;28;20278;-55
2022/11/29 09:11:19;;;;;;;0.90;0.90;;;7.20;99.90;6.30;95836.00;;;;5032970;28;20224;-55
2022/11/29 09:13:49;;;;;;;0.90;0.90;;;7.20;99.90;6.40;95844.00;;;;5035729;28;20524;-56
2022/11/29 09:16:19;;;;;;;4.63;1.10;;;7.20;99.90;6.40;95844.00;;;;5036508;28;20297;-57
2022/11/29 09:18:49;;;;;;;0.80;0.80;;;7.20;99.90;6.30;95851.00;;;;5036540;28;20225;-57
2022/11/29 09:21:16;;;;;;;1.17;1.17;;;7.20;99.90;6.40;95843.00;;;;5018944;28;20204;-55
2022/11/29 09:23:44;;;;;;;0.80;0.80;;;7.20;99.90;6.40;95851.00;;;;5036453;28;20197;-55
2022/11/29 09:26:17;;;;;;;0.80;0.80;;;7.30;99.90;6.40;95852.00;;;;5036407;28;20204;-55
2022/11/29 09:28:44;;;;;;;0.70;0.70;;;7.30;99.90;6.40;95857.00;;;;5036357;28;20232;-56
2022/11/29 09:31:15;;;;;;;0.80;0.80;;;7.30;99.90;6.40;95860.00;;;;5036267;28;20196;-55
2022/11/29 09:33:42;;;;;;;0.70;0.70;;;7.30;99.90;6.50;95860.00;;;;5036434;28;20231;-58
2022/11/29 09:36:12;;;;;;;0.83;0.83;;;7.20;99.90;6.50;95856.00;;;;5036409;28;20267;-58
2022/11/29 09:38:39;;;;;;;0.70;0.70;;;7.40;99.90;6.40;95871.00;;;;5019031;28;20205;-62
2022/11/29 09:41:35;;;;;;;2.37;1.30;;;7.30;99.90;6.50;95870.00;;;;5036188;28;20203;-55
2022/11/29 09:44:15;;;;;;;0.80;0.80;;;7.30;99.90;6.50;95867.00;;;;5036103;28;20207;-55
2022/11/29 09:46:56;;;;;;;0.97;0.97;;;7.30;99.90;6.40;95867.00;;;;5036069;28;20651;-57
2022/11/29 09:49:54;;;;;;;1.23;1.13;;;7.30;99.90;6.40;95864.00;;;;5036044;28;20206;-56
2022/11/29 09:52:41;;;;;;;0.60;0.60;;;7.30;99.90;6.40;95862.00;;;;5035833;28;20293;-57
2022/11/29 09:55:34;;;;;;;0.77;0.77;;;7.30;99.90;6.40;95870.00;;;;5035927;28;20213;-55
2022/11/29 09:58:08;;;;;;;0.70;0.70;;;7.30;99.90;6.30;95870.00;;;;5035833;28;20527;-55
2022/11/29 10:00:47;;;;;;;0.90;0.90;;;7.30;99.90;6.40;95867.00;;;;5035896;28;20272;-55
2022/11/29 10:03:24;;;;;;;0.63;0.63;;;7.30;99.90;6.40;95863.00;;;;5035747;28;20216;-55
2022/11/29 10:05:58;;;;;;;0.80;0.80;;;7.30;99.90;6.50;95868.00;;;;5018538;28;20208;-55
2022/11/29 10:08:33;;;;;;;0.90;0.90;;;7.30;99.90;6.50;95878.00;;;;5035824;28;20364;-55
2022/11/29 10:11:15;;;;;;;1.10;1.10;;;7.30;99.90;6.50;95866.00;;;;5035591;28;20240;-55
2022/11/29 10:13:50;;;;;;;1.67;1.30;;;7.40;99.90;6.50;95873.00;;;;5035736;28;20211;-57
2022/11/29 10:16:27;;;;;;;1.47;1.40;;;7.40;99.90;6.50;95878.00;;;;5035617;28;20215;-56
2022/11/29 10:19:03;;;;;;;0.70;0.70;;;7.40;99.90;6.50;95879.00;;;;5035563;28;20208;-55
2022/11/29 10:21:37;;;;;;;0.90;0.90;;;7.40;99.90;6.50;95878.00;;;;5035631;28;20220;-57
2022/11/29 10:24:13;;;;;;;1.50;1.40;;;7.40;99.90;6.50;95872.00;;;;5034541;28;20208;-54
2022/11/29 10:26:42;;;;;;;0.80;0.80;;;7.40;99.90;6.50;95874.00;;;;5017985;28;20228;-54
2022/11/29 10:29:14;;;;;;;1.23;1.17;;;7.40;99.90;6.60;95878.00;;;;5017992;28;20242;-54
2022/11/29 10:31:48;;;;;;;0.77;0.77;;;7.40;99.90;6.60;95878.00;;;;5035209;28;20228;-54
2022/11/29 10:34:17;;;;;;;0.80;0.80;;;7.50;99.90;6.50;95872.00;;;;5035294;28;20196;-55
2022/11/29 10:36:49;;;;;;;1.37;1.27;;;7.40;99.90;6.40;95878.00;;;;5035305;28;20223;-56
2022/11/29 10:39:25;;;;;;;1.00;1.00;;;7.30;99.90;6.50;95882.00;;;;5035258;28;20205;-55
2022/11/29 10:41:56;;;;;;;0.90;0.90;;;7.30;99.90;6.40;95881.00;;;;5035307;28;20200;-55
2022/11/29 10:44:23;;;;;;;0.73;0.73;;;7.30;99.90;6.40;95873.00;;;;5035059;28;20220;-55
2022/11/29 10:46:51;;;;;;;0.60;0.60;;;7.30;99.90;6.50;95877.00;;;;5035074;28;20267;-55
2022/11/29 10:49:22;;;;;;;0.80;0.80;;;7.30;99.90;6.50;95869.00;;;;5034993;28;20285;-54
2022/11/29 10:51:48;;;;;;;0.70;0.70;;;7.40;99.90;6.50;95874.00;;;;5017593;28;20212;-56
2022/11/29 10:54:37;;;;;;;0.97;0.97;;;7.40;99.90;6.50;95880.00;;;;5017487;28;20588;-55
2022/11/29 10:57:13;;;;;;;1.50;1.27;;;7.40;99.90;6.60;95870.00;;;;5035038;28;20196;-54
2022/11/29 10:59:40;;;;;;;0.70;0.70;;;7.40;99.90;6.70;95869.00;;;;5035060;28;20214;-58
2022/11/29 11:02:18;;;;;;;1.00;1.00;;;7.50;99.90;6.60;95867.00;;;;5035102;28;20192;-57
2022/11/29 11:04:46;;;;;;;1.17;1.17;;;7.40;99.90;6.60;95868.00;;;;5017519;28;20212;-56
2022/11/29 11:07:24;;;;;;;1.10;1.10;;;7.40;99.90;6.70;95867.00;;;;5034787;28;20229;-56
2022/11/29 11:09:54;;;;;;;0.90;0.90;;;7.50;99.90;6.70;95869.00;;;;5034959;28;20185;-56
2022/11/29 11:12:26;;;;;;;1.37;0.93;;;7.50;99.90;6.70;95867.00;;;;5034598;28;20232;-55
2022/11/29 11:15:25;;;;;;;0.67;0.67;;;7.50;99.90;6.80;95868.00;;;;5034796;28;20275;-55
2022/11/29 11:17:59;;;;;;;1.23;1.13;;;7.60;99.90;6.90;95860.00;;;;5034612;28;20228;-55
2022/11/29 11:20:30;;;;;;;0.63;0.63;;;7.60;99.90;6.90;95869.00;;;;5034686;28;20201;-56
2022/11/29 11:22:59;;;;;;;1.87;1.70;;;7.70;99.90;7.00;95859.00;;;;5034660;28;20706;-64
2022/11/29 11:25:30;;;;;;;1.17;1.17;;;7.80;99.90;7.00;95872.00;;;;5034691;28;20197;-56
2022/11/29 11:28:15;;;;;;;1.73;1.63;;;7.90;99.90;6.90;95865.00;;;;5034654;28;20592;-60
2022/11/29 11:30:51;;;;;;;1.87;1.77;;;7.70;99.90;6.90;95865.00;;;;5016978;28;20228;-58
2022/11/29 11:33:21;;;;;;;1.87;1.77;;;7.80;99.90;7.00;95859.00;;;;5034361;28;20686;-58
2022/11/29 11:36:12;;;;;;;0.93;0.93;;;7.70;99.90;6.90;95865.00;;;;5033856;28;20676;-57
2022/11/29 11:38:48;;;;;;;1.23;1.23;;;7.70;99.90;6.90;95863.00;;;;5012728;28;20242;-59
2022/11/29 11:41:20;;;;;;;1.70;1.33;;;7.70;99.90;7.00;95860.00;;;;5034247;28;20239;-55
2022/11/29 11:44:00;;;;;;;1.07;1.07;;;7.80;99.90;7.10;95866.00;;;;5034282;28;20192;-58
2022/11/29 11:46:46;;;;;;;1.43;1.33;;;7.80;99.90;7.10;95879.00;;;;5016698;28;20211;-56
2022/11/29 11:49:13;;;;;;;1.03;1.03;;;7.90;99.90;7.10;95875.00;;;;5034240;28;20215;-55
2022/11/29 11:51:47;;;;;;;1.13;1.10;;;7.90;99.90;7.10;95874.00;;;;5034119;28;20217;-58
2022/11/29 11:54:15;;;;;;;0.80;0.80;;;8.00;99.90;7.10;95877.00;;;;5034006;28;20219;-56
2022/11/29 11:56:42;;;;;;;1.20;1.13;;;8.00;99.90;7.20;95883.00;;;;5033980;28;20547;-55
2022/11/29 11:59:18;;;;;;;1.50;1.40;;;8.00;99.90;7.20;95877.00;;;;5033964;28;20220;-55
2022/11/29 12:01:46;;;;;;;0.83;0.83;;;8.00;99.90;7.20;95881.00;;;;5034101;28;20203;-55